createdAt,value
2023-05-02T00:03:30.455Z,1.50
2023-05-02T00:08:33.202Z,1.35
2023-05-02T00:13:36.284Z,1.35
2023-05-02T00:18:39.139Z,1.25
2023-05-02T00:23:42.031Z,1.02
2023-05-02T00:28:44.922Z,1.60
2023-05-02T00:33:47.832Z,1.38
2023-05-02T00:38:51.495Z,1.17
2023-05-02T00:43:54.531Z,1.42
2023-05-02T00:48:57.173Z,1.25
2023-05-02T00:54:01.298Z,1.23
2023-05-02T00:59:05.412Z,1.30
2023-05-02T01:04:11.059Z,1.10
2023-05-02T01:09:32.218Z,1.45
2023-05-02T01:14:36.630Z,1.10
2023-05-02T01:19:53.258Z,1.33
2023-05-02T01:29:59.884Z,1.55
2023-05-02T01:35:03.441Z,1.95
2023-05-02T01:40:08.401Z,2.00
2023-05-02T01:45:11.760Z,1.58
2023-05-02T01:50:18.006Z,1.83
2023-05-02T01:55:21.454Z,1.90
2023-05-02T02:00:25.042Z,1.70
2023-05-02T02:05:28.929Z,1.95
2023-05-02T02:10:36.494Z,1.70
2023-05-02T02:15:40.480Z,2.00
2023-05-02T02:25:46.920Z,1.77
2023-05-02T02:30:51.629Z,1.67
2023-05-02T02:35:59.062Z,2.50
2023-05-02T02:41:14.045Z,1.65
2023-05-02T02:46:29.715Z,1.60
2023-05-02T02:51:35.492Z,2.00
2023-05-02T02:56:47.165Z,1.80
2023-05-02T03:01:55.894Z,1.73
2023-05-02T03:06:58.707Z,1.85
2023-05-02T03:12:01.835Z,1.60
2023-05-02T03:17:05.161Z,1.45
2023-05-02T03:22:08.571Z,1.50
2023-05-02T03:27:12.632Z,1.50
2023-05-02T03:32:17.850Z,2.13
2023-05-02T03:37:20.908Z,1.70
2023-05-02T03:42:23.883Z,1.50
2023-05-02T03:47:27.018Z,1.80
2023-05-02T03:52:29.964Z,1.60
2023-05-02T03:57:34.339Z,2.28
2023-05-02T04:02:37.908Z,2.33
2023-05-02T04:07:43.499Z,1.90
2023-05-02T04:17:50.276Z,2.70
2023-05-02T04:22:54.804Z,1.90
2023-05-02T04:27:58.079Z,1.77
2023-05-02T04:33:01.965Z,1.85
2023-05-02T04:38:09.158Z,2.33
2023-05-02T04:43:13.220Z,2.25
2023-05-02T04:48:22.017Z,2.50
2023-05-02T04:53:24.748Z,2.40
2023-05-02T05:03:35.281Z,2.70
2023-05-02T05:13:40.974Z,2.83
2023-05-02T05:18:44.819Z,2.88
2023-05-02T05:23:50.350Z,2.63
2023-05-02T05:29:00.206Z,2.55
2023-05-02T05:39:17.172Z,2.97
2023-05-02T05:44:22.656Z,2.35
2023-05-02T05:49:26.926Z,3.13
2023-05-02T05:54:30.299Z,2.88
2023-05-02T05:59:36.527Z,1.80
2023-05-02T06:04:42.593Z,3.28
2023-05-02T06:10:06.739Z,2.58
2023-05-02T06:16:15.561Z,2.45
2023-05-02T06:21:19.083Z,2.90
2023-05-02T06:26:22.567Z,2.58
2023-05-02T06:31:30.481Z,2.15
2023-05-02T06:36:34.020Z,1.90
2023-05-02T06:41:41.058Z,1.70
2023-05-02T06:46:52.512Z,1.35
2023-05-02T06:51:55.400Z,1.75
2023-05-02T06:56:58.017Z,1.60
2023-05-02T07:02:05.023Z,1.77
2023-05-02T07:07:10.326Z,2.00
2023-05-02T07:12:13.070Z,1.75
2023-05-02T07:17:21.917Z,1.70
2023-05-02T07:22:24.829Z,1.60
2023-05-02T07:27:27.760Z,1.45
2023-05-02T07:32:31.631Z,1.48
2023-05-02T07:37:38.224Z,1.23
2023-05-02T07:42:44.692Z,1.73
2023-05-02T07:47:47.519Z,1.60
2023-05-02T07:52:50.520Z,1.08
2023-05-02T07:57:53.605Z,1.30
2023-05-02T08:08:00.154Z,1.15
2023-05-02T08:13:02.683Z,1.02
2023-05-02T08:18:05.530Z,1.25
2023-05-02T08:23:08.323Z,1.02
2023-05-02T08:28:11.144Z,1.27
2023-05-02T08:33:13.995Z,1.80
2023-05-02T08:38:17.826Z,1.40
2023-05-02T08:43:21.183Z,1.50
2023-05-02T08:53:27.108Z,1.50
2023-05-02T08:58:31.088Z,2.00
2023-05-02T09:03:34.655Z,2.05
2023-05-02T09:08:37.849Z,1.98
2023-05-02T09:13:44.900Z,2.05
2023-05-02T09:18:49.195Z,1.48
2023-05-02T09:23:53.252Z,1.20
2023-05-02T09:28:56.479Z,1.60
2023-05-02T09:39:10.558Z,2.05
2023-05-02T09:44:15.011Z,1.15
2023-05-02T09:49:21.435Z,1.55
2023-05-02T09:54:37.043Z,2.38
2023-05-02T09:59:41.040Z,2.33
2023-05-02T10:04:44.436Z,2.50
2023-05-02T10:09:48.274Z,2.75
2023-05-02T10:14:56.564Z,2.13
2023-05-02T10:20:05.118Z,2.33
2023-05-02T10:25:10.606Z,2.28
2023-05-02T10:35:16.495Z,2.55
2023-05-02T10:40:19.593Z,2.58
2023-05-02T10:50:43.034Z,3.53
2023-05-02T10:55:46.518Z,2.80
2023-05-02T11:06:08.007Z,4.40
2023-05-02T11:11:31.258Z,2.28
2023-05-02T11:16:52.965Z,2.20
2023-05-02T11:22:15.310Z,1.67
2023-05-02T11:27:30.394Z,1.98
2023-05-02T11:40:44.479Z,1.50
2023-05-02T11:45:51.463Z,1.92
2023-05-02T11:51:02.524Z,2.17
2023-05-02T11:56:09.585Z,2.70
2023-05-02T12:01:16.331Z,2.70
2023-05-02T12:06:20.354Z,3.20
2023-05-02T12:11:23.954Z,3.40
2023-05-02T12:16:26.653Z,3.08
2023-05-02T12:21:30.272Z,2.95
2023-05-02T12:26:33.983Z,2.55
2023-05-02T12:31:36.984Z,3.40
2023-05-02T12:36:44.594Z,3.10
2023-05-02T12:41:48.464Z,3.35
2023-05-02T12:47:00.966Z,6.05
2023-05-02T12:52:03.882Z,4.15
2023-05-02T12:57:06.570Z,3.65
2023-05-02T13:02:09.311Z,7.10
2023-05-02T13:07:12.455Z,3.42
2023-05-02T13:12:15.064Z,3.95
2023-05-02T13:17:18.371Z,4.22
2023-05-02T13:22:21.915Z,3.63
2023-05-02T13:32:27.254Z,3.75
2023-05-02T13:37:30.431Z,3.95
2023-05-02T13:42:35.729Z,3.70
2023-05-02T13:53:53.105Z,3.38
2023-05-02T13:59:08.648Z,3.33
2023-05-02T14:04:12.580Z,4.05
2023-05-02T14:09:16.068Z,3.20
2023-05-02T14:14:18.955Z,3.35
2023-05-02T14:19:21.960Z,2.83
2023-05-02T14:24:25.318Z,2.97
2023-05-02T14:29:28.299Z,7.93
2023-05-02T14:34:31.331Z,2.70
2023-05-02T14:39:34.553Z,2.42
2023-05-02T14:44:37.857Z,3.20
2023-05-02T14:49:40.964Z,2.92
2023-05-02T14:54:43.642Z,2.75
2023-05-02T14:59:46.578Z,2.83
2023-05-02T15:04:49.378Z,3.00
2023-05-02T15:09:52.205Z,2.90
2023-05-02T15:14:54.938Z,3.28
2023-05-02T15:19:58.578Z,2.58
2023-05-02T15:25:03.015Z,3.25
2023-05-02T15:30:08.240Z,3.30
2023-05-02T15:35:12.024Z,3.17
2023-05-02T15:45:17.498Z,3.10
2023-05-02T15:50:20.285Z,3.25
2023-05-02T15:55:23.212Z,3.65
2023-05-02T16:00:26.230Z,3.58
2023-05-02T16:05:28.992Z,3.90
2023-05-02T16:10:31.781Z,2.97
2023-05-02T16:15:34.941Z,3.63
2023-05-02T16:20:37.998Z,3.30
2023-05-02T16:25:40.997Z,3.15
2023-05-02T16:30:43.770Z,3.60
2023-05-02T16:35:46.762Z,3.53
2023-05-02T16:40:49.658Z,3.45
2023-05-02T16:46:02.325Z,5.43
2023-05-02T16:51:05.162Z,3.40
2023-05-02T16:56:08.556Z,3.80
2023-05-02T17:01:11.571Z,3.90
2023-05-02T17:06:14.629Z,3.53
2023-05-02T17:11:17.807Z,3.47
2023-05-02T17:16:22.681Z,3.42
2023-05-02T17:21:25.511Z,3.58
2023-05-02T17:26:28.527Z,3.15
2023-05-02T17:31:31.667Z,3.70
2023-05-02T17:36:35.072Z,3.83
2023-05-02T17:41:38.170Z,3.75
2023-05-02T17:46:42.054Z,3.60
2023-05-02T18:01:50.728Z,3.67
2023-05-02T18:06:53.700Z,3.20
2023-05-02T18:11:58.833Z,3.50
2023-05-02T18:17:01.540Z,3.20
2023-05-02T18:22:04.329Z,3.45
2023-05-02T18:27:07.016Z,3.30
2023-05-02T18:32:09.772Z,3.28
2023-05-02T18:37:12.796Z,2.83
2023-05-02T18:42:15.945Z,2.90
2023-05-02T18:47:18.988Z,2.65
2023-05-02T18:52:21.760Z,2.75
2023-05-02T18:57:24.858Z,2.45
2023-05-02T19:02:28.149Z,2.70
2023-05-02T19:07:31.044Z,2.92
2023-05-02T19:12:33.628Z,3.30
2023-05-02T19:17:36.950Z,3.03
2023-05-02T19:22:39.789Z,2.63
2023-05-02T19:27:44.639Z,2.35
2023-05-02T19:32:48.015Z,2.92
2023-05-02T19:37:50.650Z,2.78
2023-05-02T19:42:53.416Z,2.33
2023-05-02T19:47:56.639Z,2.50
2023-05-02T19:53:01.901Z,2.28
2023-05-02T19:58:04.781Z,2.35
2023-05-02T20:03:07.595Z,2.30
2023-05-02T20:08:10.742Z,2.63
2023-05-02T20:13:13.404Z,2.63
2023-05-02T20:18:16.377Z,2.20
2023-05-02T20:23:19.288Z,2.30
2023-05-02T20:28:22.261Z,2.00
2023-05-02T20:33:27.506Z,2.17
2023-05-02T20:38:36.553Z,2.40
2023-05-02T20:43:40.048Z,2.40
2023-05-02T20:48:43.137Z,2.38
2023-05-02T20:53:45.928Z,2.13
2023-05-02T20:58:48.677Z,2.20
2023-05-02T21:03:51.522Z,1.88
2023-05-02T21:08:56.863Z,2.20
2023-05-02T21:13:59.825Z,1.73
2023-05-02T21:19:02.552Z,1.70
2023-05-02T21:24:05.936Z,1.75
2023-05-02T21:29:10.988Z,1.90
2023-05-02T21:34:14.071Z,1.58
2023-05-02T21:39:17.040Z,1.67
2023-05-02T21:44:20.024Z,1.55
2023-05-02T21:49:22.866Z,1.23
2023-05-02T21:54:25.698Z,1.20
2023-05-02T21:59:28.369Z,1.10
2023-05-02T22:04:31.304Z,1.33
2023-05-02T22:09:34.150Z,1.20
2023-05-02T22:14:44.570Z,1.23
2023-05-02T22:19:50.068Z,0.98
2023-05-02T22:24:52.895Z,1.08
2023-05-02T22:29:56.565Z,1.08
2023-05-02T22:34:59.675Z,1.20
2023-05-02T22:40:03.350Z,0.90
2023-05-02T22:45:07.960Z,1.13
2023-05-02T22:50:11.324Z,1.20
2023-05-02T22:55:14.401Z,1.00
2023-05-02T23:00:17.604Z,0.90
2023-05-02T23:05:20.406Z,0.90
2023-05-02T23:10:23.261Z,1.10
2023-05-02T23:15:26.152Z,0.90
2023-05-02T23:20:28.793Z,1.25
2023-05-02T23:25:31.706Z,0.65
2023-05-02T23:30:34.492Z,0.77
2023-05-02T23:35:37.235Z,0.90
2023-05-02T23:40:40.103Z,0.90
2023-05-02T23:45:42.758Z,0.70
2023-05-02T23:50:45.458Z,0.70
2023-05-02T23:55:48.475Z,0.80
